sensor_id;sensor_type;location;lat;lon;timestamp;pressure;altitude;pressure_sealevel;temperature;humidity
23419;BME280;11882;42.522;27.458;2022-12-18T00:02:07;101865.09;;;15.81;82.25
23419;BME280;11882;42.522;27.458;2022-12-18T00:04:34;101851.84;;;15.79;82.01
23419;BME280;11882;42.522;27.458;2022-12-18T00:07:01;101853.78;;;15.70;82.69
23419;BME280;11882;42.522;27.458;2022-12-18T00:09:28;101853.44;;;15.73;82.25
23419;BME280;11882;42.522;27.458;2022-12-18T00:11:55;101856.09;;;15.73;82.78
23419;BME280;11882;42.522;27.458;2022-12-18T00:14:24;101871.81;;;15.62;84.71
23419;BME280;11882;42.522;27.458;2022-12-18T00:16:51;101880.53;;;15.56;85.64
23419;BME280;11882;42.522;27.458;2022-12-18T00:19:18;101900.22;;;15.48;85.55
23419;BME280;11882;42.522;27.458;2022-12-18T00:21:45;101893.91;;;15.41;85.62
23419;BME280;11882;42.522;27.458;2022-12-18T00:24:12;101910.19;;;15.39;85.63
23419;BME280;11882;42.522;27.458;2022-12-18T00:26:39;101905.94;;;15.45;86.23
23419;BME280;11882;42.522;27.458;2022-12-18T00:29:09;101899.28;;;15.41;86.15
23419;BME280;11882;42.522;27.458;2022-12-18T00:31:38;101884.47;;;15.45;86.77
23419;BME280;11882;42.522;27.458;2022-12-18T00:34:05;101881.69;;;15.38;86.27
23419;BME280;11882;42.522;27.458;2022-12-18T00:36:34;101889.56;;;15.40;86.33
23419;BME280;11882;42.522;27.458;2022-12-18T00:39:03;101897.25;;;15.43;86.77
23419;BME280;11882;42.522;27.458;2022-12-18T00:41:31;101903.25;;;15.45;86.98
23419;BME280;11882;42.522;27.458;2022-12-18T00:44:21;101916.75;;;15.37;87.67
23419;BME280;11882;42.522;27.458;2022-12-18T00:46:49;101922.09;;;15.37;87.67
23419;BME280;11882;42.522;27.458;2022-12-18T00:49:17;101931.47;;;15.41;89.72
23419;BME280;11882;42.522;27.458;2022-12-18T00:51:45;101928.41;;;15.44;92.91
23419;BME280;11882;42.522;27.458;2022-12-18T00:54:12;101931.56;;;15.47;95.01
23419;BME280;11882;42.522;27.458;2022-12-18T00:56:39;101941.72;;;15.83;93.44
23419;BME280;11882;42.522;27.458;2022-12-18T00:59:06;101917.84;;;15.73;92.90
23419;BME280;11882;42.522;27.458;2022-12-18T01:01:33;101894.81;;;15.33;95.10
23419;BME280;11882;42.522;27.458;2022-12-18T01:04:03;101882.94;;;15.28;96.43
23419;BME280;11882;42.522;27.458;2022-12-18T01:06:30;101888.84;;;15.23;96.90
23419;BME280;11882;42.522;27.458;2022-12-18T01:08:57;101892.44;;;15.15;97.89
23419;BME280;11882;42.522;27.458;2022-12-18T01:11:24;101891.28;;;15.10;98.02
23419;BME280;11882;42.522;27.458;2022-12-18T01:13:53;101889.09;;;15.13;96.91
23419;BME280;11882;42.522;27.458;2022-12-18T01:16:21;101885.03;;;15.18;96.60
23419;BME280;11882;42.522;27.458;2022-12-18T01:18:51;101894.50;;;15.05;97.25
23419;BME280;11882;42.522;27.458;2022-12-18T01:21:21;101893.19;;;15.01;97.16
23419;BME280;11882;42.522;27.458;2022-12-18T01:23:51;101905.13;;;14.99;95.80
23419;BME280;11882;42.522;27.458;2022-12-18T01:26:19;101898.56;;;15.01;92.81
23419;BME280;11882;42.522;27.458;2022-12-18T01:28:46;101897.66;;;15.09;89.76
23419;BME280;11882;42.522;27.458;2022-12-18T01:31:16;101907.31;;;15.18;87.41
23419;BME280;11882;42.522;27.458;2022-12-18T01:33:44;101913.03;;;15.15;85.56
23419;BME280;11882;42.522;27.458;2022-12-18T01:36:18;101923.03;;;14.98;84.87
23419;BME280;11882;42.522;27.458;2022-12-18T01:38:47;101924.19;;;15.04;83.79
23419;BME280;11882;42.522;27.458;2022-12-18T01:41:17;101946.50;;;14.96;85.60
23419;BME280;11882;42.522;27.458;2022-12-18T01:43:48;101947.88;;;14.92;86.02
23419;BME280;11882;42.522;27.458;2022-12-18T01:46:16;101954.38;;;14.98;85.71
23419;BME280;11882;42.522;27.458;2022-12-18T01:48:45;101955.81;;;15.08;83.10
23419;BME280;11882;42.522;27.458;2022-12-18T01:51:13;101961.88;;;15.02;82.14
23419;BME280;11882;42.522;27.458;2022-12-18T01:53:42;101956.31;;;15.12;82.17
23419;BME280;11882;42.522;27.458;2022-12-18T01:56:15;101959.03;;;15.04;82.04
23419;BME280;11882;42.522;27.458;2022-12-18T01:58:50;101968.91;;;15.03;82.15
23419;BME280;11882;42.522;27.458;2022-12-18T02:01:21;101965.41;;;15.03;81.79
23419;BME280;11882;42.522;27.458;2022-12-18T02:03:49;101967.28;;;15.25;79.53
23419;BME280;11882;42.522;27.458;2022-12-18T02:06:20;101964.66;;;15.17;79.30
23419;BME280;11882;42.522;27.458;2022-12-18T02:08:57;101959.22;;;15.02;79.43
23419;BME280;11882;42.522;27.458;2022-12-18T02:11:39;101966.72;;;15.07;79.51
23419;BME280;11882;42.522;27.458;2022-12-18T02:14:17;101972.97;;;14.99;79.53
23419;BME280;11882;42.522;27.458;2022-12-18T02:16:52;101977.31;;;15.00;79.55
23419;BME280;11882;42.522;27.458;2022-12-18T02:19:44;101980.34;;;14.97;79.30
23419;BME280;11882;42.522;27.458;2022-12-18T02:22:26;101961.88;;;15.02;78.27
23419;BME280;11882;42.522;27.458;2022-12-18T02:25:02;101943.22;;;14.86;78.80
23419;BME280;11882;42.522;27.458;2022-12-18T02:27:35;101936.88;;;14.79;79.99
23419;BME280;11882;42.522;27.458;2022-12-18T02:30:05;101936.44;;;14.67;80.10
23419;BME280;11882;42.522;27.458;2022-12-18T02:32:38;101938.94;;;14.69;80.01
23419;BME280;11882;42.522;27.458;2022-12-18T02:35:11;101945.66;;;14.65;80.47
23419;BME280;11882;42.522;27.458;2022-12-18T02:37:41;101944.84;;;14.56;80.52
23419;BME280;11882;42.522;27.458;2022-12-18T02:40:11;101940.19;;;14.50;80.83
23419;BME280;11882;42.522;27.458;2022-12-18T02:42:41;101942.53;;;14.53;80.92
23419;BME280;11882;42.522;27.458;2022-12-18T02:45:09;101942.19;;;14.56;81.21
23419;BME280;11882;42.522;27.458;2022-12-18T02:47:38;101943.03;;;14.40;81.46
23419;BME280;11882;42.522;27.458;2022-12-18T02:50:09;101941.72;;;14.44;81.29
23419;BME280;11882;42.522;27.458;2022-12-18T02:52:45;101952.09;;;14.39;81.34
23419;BME280;11882;42.522;27.458;2022-12-18T02:55:28;101957.94;;;14.51;80.76
23419;BME280;11882;42.522;27.458;2022-12-18T02:58:03;101964.47;;;14.40;80.97
23419;BME280;11882;42.522;27.458;2022-12-18T03:00:37;101965.66;;;14.46;80.90
23419;BME280;11882;42.522;27.458;2022-12-18T03:03:11;101959.13;;;14.48;81.07
23419;BME280;11882;42.522;27.458;2022-12-18T03:05:43;101960.63;;;14.43;81.33
23419;BME280;11882;42.522;27.458;2022-12-18T03:08:15;101938.38;;;14.34;81.75
23419;BME280;11882;42.522;27.458;2022-12-18T03:10:50;101925.69;;;14.28;82.09
23419;BME280;11882;42.522;27.458;2022-12-18T03:13:23;101929.69;;;14.24;81.68
23419;BME280;11882;42.522;27.458;2022-12-18T03:15:56;101941.78;;;14.12;82.43
23419;BME280;11882;42.522;27.458;2022-12-18T03:18:29;101945.63;;;14.17;82.99
23419;BME280;11882;42.522;27.458;2022-12-18T03:20:59;101957.34;;;14.00;84.53
23419;BME280;11882;42.522;27.458;2022-12-18T03:23:34;101963.56;;;13.93;85.12
23419;BME280;11882;42.522;27.458;2022-12-18T03:26:07;101965.91;;;13.79;86.35
23419;BME280;11882;42.522;27.458;2022-12-18T03:28:40;101966.56;;;13.81;85.91
23419;BME280;11882;42.522;27.458;2022-12-18T03:31:10;101965.41;;;13.68;86.58
23419;BME280;11882;42.522;27.458;2022-12-18T03:33:41;101972.09;;;13.64;86.66
23419;BME280;11882;42.522;27.458;2022-12-18T03:36:11;101982.97;;;13.62;85.93
23419;BME280;11882;42.522;27.458;2022-12-18T03:38:38;101985.63;;;13.54;85.63
23419;BME280;11882;42.522;27.458;2022-12-18T03:41:11;101998.34;;;13.60;84.27
23419;BME280;11882;42.522;27.458;2022-12-18T03:43:49;101995.66;;;13.68;83.84
23419;BME280;11882;42.522;27.458;2022-12-18T03:46:24;101998.19;;;13.62;83.56
23419;BME280;11882;42.522;27.458;2022-12-18T03:48:59;102014.22;;;13.53;83.99
23419;BME280;11882;42.522;27.458;2022-12-18T03:51:34;102025.06;;;13.52;84.88
23419;BME280;11882;42.522;27.458;2022-12-18T03:54:05;102026.25;;;13.49;84.83
23419;BME280;11882;42.522;27.458;2022-12-18T03:56:37;102035.44;;;13.47;85.48
23419;BME280;11882;42.522;27.458;2022-12-18T03:59:07;102049.78;;;13.46;86.33
23419;BME280;11882;42.522;27.458;2022-12-18T04:01:39;102045.13;;;13.48;85.57
23419;BME280;11882;42.522;27.458;2022-12-18T04:04:08;102049.84;;;13.78;83.35
23419;BME280;11882;42.522;27.458;2022-12-18T04:06:38;102052.84;;;13.67;82.99
23419;BME280;11882;42.522;27.458;2022-12-18T04:09:07;102058.34;;;13.66;84.00
23419;BME280;11882;42.522;27.458;2022-12-18T04:11:34;102055.19;;;13.70;83.85
23419;BME280;11882;42.522;27.458;2022-12-18T04:14:01;102057.53;;;13.65;84.24
23419;BME280;11882;42.522;27.458;2022-12-18T04:16:31;102069.22;;;13.64;84.67
23419;BME280;11882;42.522;27.458;2022-12-18T04:18:58;102077.75;;;13.68;85.00
23419;BME280;11882;42.522;27.458;2022-12-18T04:21:25;102082.25;;;13.59;84.68
23419;BME280;11882;42.522;27.458;2022-12-18T04:23:52;102087.94;;;13.56;85.07
23419;BME280;11882;42.522;27.458;2022-12-18T04:26:19;102087.28;;;13.62;85.77
23419;BME280;11882;42.522;27.458;2022-12-18T04:28:46;102085.78;;;13.68;85.01
23419;BME280;11882;42.522;27.458;2022-12-18T04:31:13;102092.28;;;13.57;84.54
23419;BME280;11882;42.522;27.458;2022-12-18T04:33:42;102094.63;;;13.60;84.18
23419;BME280;11882;42.522;27.458;2022-12-18T04:36:09;102101.31;;;13.56;84.53
23419;BME280;11882;42.522;27.458;2022-12-18T04:38:37;102105.97;;;13.54;84.11
23419;BME280;11882;42.522;27.458;2022-12-18T04:41:05;102111.31;;;13.46;83.99
23419;BME280;11882;42.522;27.458;2022-12-18T04:43:32;102114.84;;;13.54;84.25
23419;BME280;11882;42.522;27.458;2022-12-18T04:46:03;102119.34;;;13.54;84.71
23419;BME280;11882;42.522;27.458;2022-12-18T04:48:30;102121.06;;;13.63;83.43
23419;BME280;11882;42.522;27.458;2022-12-18T04:50:59;102122.06;;;13.62;83.15
23419;BME280;11882;42.522;27.458;2022-12-18T04:53:26;102147.81;;;13.71;82.43
23419;BME280;11882;42.522;27.458;2022-12-18T04:56:02;102146.59;;;13.58;84.89
23419;BME280;11882;42.522;27.458;2022-12-18T04:58:29;102149.38;;;13.40;85.75
23419;BME280;11882;42.522;27.458;2022-12-18T05:00:57;102149.91;;;13.43;86.79
23419;BME280;11882;42.522;27.458;2022-12-18T05:03:24;102162.06;;;13.38;85.08
23419;BME280;11882;42.522;27.458;2022-12-18T05:05:51;102171.31;;;13.51;83.07
23419;BME280;11882;42.522;27.458;2022-12-18T05:08:20;102172.03;;;13.62;83.20
23419;BME280;11882;42.522;27.458;2022-12-18T05:10:47;102181.94;;;13.69;83.27
23419;BME280;11882;42.522;27.458;2022-12-18T05:13:14;102184.91;;;13.66;82.25
23419;BME280;11882;42.522;27.458;2022-12-18T05:15:41;102191.63;;;13.70;81.99
23419;BME280;11882;42.522;27.458;2022-12-18T05:18:08;102206.88;;;13.78;80.97
23419;BME280;11882;42.522;27.458;2022-12-18T05:20:35;102211.56;;;13.84;80.24
23419;BME280;11882;42.522;27.458;2022-12-18T05:23:02;102208.94;;;14.00;79.44
23419;BME280;11882;42.522;27.458;2022-12-18T05:25:31;102204.78;;;14.06;78.74
23419;BME280;11882;42.522;27.458;2022-12-18T05:27:58;102207.13;;;14.09;79.45
23419;BME280;11882;42.522;27.458;2022-12-18T05:30:25;102212.16;;;14.20;78.79
23419;BME280;11882;42.522;27.458;2022-12-18T05:32:53;102210.47;;;14.03;78.92
23419;BME280;11882;42.522;27.458;2022-12-18T05:35:20;102214.28;;;13.92;80.18
23419;BME280;11882;42.522;27.458;2022-12-18T05:37:47;102214.28;;;13.92;80.27
23419;BME280;11882;42.522;27.458;2022-12-18T05:40:14;102224.53;;;14.13;79.07
23419;BME280;11882;42.522;27.458;2022-12-18T05:42:42;102221.03;;;14.12;79.23
23419;BME280;11882;42.522;27.458;2022-12-18T05:45:09;102226.97;;;13.90;80.56
23419;BME280;11882;42.522;27.458;2022-12-18T05:47:36;102245.56;;;14.00;81.51
23419;BME280;11882;42.522;27.458;2022-12-18T05:50:06;102254.94;;;13.96;82.90
23419;BME280;11882;42.522;27.458;2022-12-18T05:52:34;102252.56;;;13.93;83.34
23419;BME280;11882;42.522;27.458;2022-12-18T05:55:01;102254.25;;;13.94;84.11
23419;BME280;11882;42.522;27.458;2022-12-18T05:57:28;102263.13;;;13.94;84.08
23419;BME280;11882;42.522;27.458;2022-12-18T05:59:56;102275.50;;;13.95;85.02
23419;BME280;11882;42.522;27.458;2022-12-18T06:02:23;102290.41;;;13.98;83.95
23419;BME280;11882;42.522;27.458;2022-12-18T06:04:50;102292.19;;;13.89;81.20
23419;BME280;11882;42.522;27.458;2022-12-18T06:07:17;102292.06;;;13.99;76.68
23419;BME280;11882;42.522;27.458;2022-12-18T06:09:44;102298.34;;;13.81;75.46
23419;BME280;11882;42.522;27.458;2022-12-18T06:12:11;102300.66;;;13.76;75.13
23419;BME280;11882;42.522;27.458;2022-12-18T06:14:38;102313.59;;;13.55;76.35
23419;BME280;11882;42.522;27.458;2022-12-18T06:17:07;102314.38;;;13.73;75.62
23419;BME280;11882;42.522;27.458;2022-12-18T06:19:34;102319.34;;;13.68;75.52
23419;BME280;11882;42.522;27.458;2022-12-18T06:22:01;102318.25;;;13.53;76.32
23419;BME280;11882;42.522;27.458;2022-12-18T06:24:28;102319.25;;;13.52;76.09
23419;BME280;11882;42.522;27.458;2022-12-18T06:26:56;102328.09;;;13.27;76.96
23419;BME280;11882;42.522;27.458;2022-12-18T06:29:23;102330.28;;;13.49;76.24
23419;BME280;11882;42.522;27.458;2022-12-18T06:31:50;102330.78;;;13.27;74.67
23419;BME280;11882;42.522;27.458;2022-12-18T06:34:18;102329.38;;;13.40;74.67
23419;BME280;11882;42.522;27.458;2022-12-18T06:36:45;102331.94;;;13.24;75.15
23419;BME280;11882;42.522;27.458;2022-12-18T06:39:12;102339.84;;;13.34;75.22
23419;BME280;11882;42.522;27.458;2022-12-18T06:41:39;102348.97;;;13.23;75.77
23419;BME280;11882;42.522;27.458;2022-12-18T06:44:06;102361.63;;;13.03;75.78
23419;BME280;11882;42.522;27.458;2022-12-18T06:46:33;102362.38;;;13.13;75.75
23419;BME280;11882;42.522;27.458;2022-12-18T06:49:01;102365.81;;;13.06;75.96
23419;BME280;11882;42.522;27.458;2022-12-18T06:51:29;102373.88;;;13.23;75.85
23419;BME280;11882;42.522;27.458;2022-12-18T06:53:56;102376.06;;;13.28;75.46
23419;BME280;11882;42.522;27.458;2022-12-18T06:56:23;102392.44;;;13.25;75.08
23419;BME280;11882;42.522;27.458;2022-12-18T06:58:50;102390.34;;;13.37;74.20
23419;BME280;11882;42.522;27.458;2022-12-18T07:01:17;102397.25;;;13.21;74.57
23419;BME280;11882;42.522;27.458;2022-12-18T07:03:44;102400.59;;;13.23;74.06
23419;BME280;11882;42.522;27.458;2022-12-18T07:06:13;102404.88;;;13.16;73.87
23419;BME280;11882;42.522;27.458;2022-12-18T07:08:43;102411.59;;;13.20;73.75
23419;BME280;11882;42.522;27.458;2022-12-18T07:11:10;102420.41;;;13.03;74.04
23419;BME280;11882;42.522;27.458;2022-12-18T07:13:37;102438.28;;;13.03;73.42
23419;BME280;11882;42.522;27.458;2022-12-18T07:16:06;102439.13;;;13.03;72.75
23419;BME280;11882;42.522;27.458;2022-12-18T07:18:33;102443.47;;;12.86;72.40
23419;BME280;11882;42.522;27.458;2022-12-18T07:21:03;102448.94;;;12.85;72.43
23419;BME280;11882;42.522;27.458;2022-12-18T07:23:31;102448.34;;;12.91;72.25
23419;BME280;11882;42.522;27.458;2022-12-18T07:26:02;102439.66;;;12.89;72.37
23419;BME280;11882;42.522;27.458;2022-12-18T07:28:30;102449.03;;;12.93;72.52
23419;BME280;11882;42.522;27.458;2022-12-18T07:30:58;102455.50;;;12.73;71.99
23419;BME280;11882;42.522;27.458;2022-12-18T07:33:25;102462.22;;;12.77;71.53
23419;BME280;11882;42.522;27.458;2022-12-18T07:35:52;102464.50;;;12.72;71.63
23419;BME280;11882;42.522;27.458;2022-12-18T07:38:19;102466.56;;;12.78;71.50
23419;BME280;11882;42.522;27.458;2022-12-18T07:40:46;102474.19;;;12.73;71.75
23419;BME280;11882;42.522;27.458;2022-12-18T07:43:15;102487.09;;;12.77;71.31
23419;BME280;11882;42.522;27.458;2022-12-18T07:45:42;102494.03;;;12.70;71.38
23419;BME280;11882;42.522;27.458;2022-12-18T07:48:09;102492.63;;;12.66;71.43
23419;BME280;11882;42.522;27.458;2022-12-18T07:50:37;102500.09;;;12.63;70.98
23419;BME280;11882;42.522;27.458;2022-12-18T07:53:04;102505.84;;;12.68;71.30
23419;BME280;11882;42.522;27.458;2022-12-18T07:55:31;102503.06;;;12.87;70.08
23419;BME280;11882;42.522;27.458;2022-12-18T07:58:01;102512.09;;;12.86;69.63
23419;BME280;11882;42.522;27.458;2022-12-18T08:00:30;102514.47;;;12.89;69.16
23419;BME280;11882;42.522;27.458;2022-12-18T08:02:57;102516.94;;;12.73;69.59
23419;BME280;11882;42.522;27.458;2022-12-18T08:05:25;102520.94;;;12.86;69.72
23419;BME280;11882;42.522;27.458;2022-12-18T08:07:52;102524.94;;;12.73;68.86
23419;BME280;11882;42.522;27.458;2022-12-18T08:10:20;102526.91;;;12.71;69.60
23419;BME280;11882;42.522;27.458;2022-12-18T08:12:49;102536.63;;;12.72;69.94
23419;BME280;11882;42.522;27.458;2022-12-18T08:15:16;102534.81;;;12.63;69.66
23419;BME280;11882;42.522;27.458;2022-12-18T08:17:45;102540.34;;;12.51;69.57
23419;BME280;11882;42.522;27.458;2022-12-18T08:20:12;102537.66;;;12.51;69.66
23419;BME280;11882;42.522;27.458;2022-12-18T08:22:40;102544.06;;;12.68;69.19
23419;BME280;11882;42.522;27.458;2022-12-18T08:25:08;102546.66;;;12.50;69.57
23419;BME280;11882;42.522;27.458;2022-12-18T08:27:35;102550.91;;;12.43;69.24
23419;BME280;11882;42.522;27.458;2022-12-18T08:30:03;102546.69;;;12.41;69.69
23419;BME280;11882;42.522;27.458;2022-12-18T08:32:30;102539.06;;;12.55;68.65
23419;BME280;11882;42.522;27.458;2022-12-18T08:34:59;102542.88;;;12.53;68.34
23419;BME280;11882;42.522;27.458;2022-12-18T08:37:26;102538.13;;;12.37;69.84
23419;BME280;11882;42.522;27.458;2022-12-18T08:39:53;102538.94;;;12.47;69.16
23419;BME280;11882;42.522;27.458;2022-12-18T08:42:20;102543.31;;;12.48;69.30
23419;BME280;11882;42.522;27.458;2022-12-18T08:45:06;102549.69;;;12.28;68.98
23419;BME280;11882;42.522;27.458;2022-12-18T08:47:33;102550.22;;;12.41;69.21
23419;BME280;11882;42.522;27.458;2022-12-18T08:50:01;102541.94;;;12.35;69.05
23419;BME280;11882;42.522;27.458;2022-12-18T08:52:28;102546.44;;;12.34;68.86
23419;BME280;11882;42.522;27.458;2022-12-18T08:54:57;102542.41;;;12.11;69.36
23419;BME280;11882;42.522;27.458;2022-12-18T08:57:24;102555.31;;;12.15;69.04
23419;BME280;11882;42.522;27.458;2022-12-18T08:59:51;102544.75;;;12.33;68.69
23419;BME280;11882;42.522;27.458;2022-12-18T09:02:18;102554.59;;;12.23;68.73
23419;BME280;11882;42.522;27.458;2022-12-18T09:04:46;102559.09;;;12.22;68.72
23419;BME280;11882;42.522;27.458;2022-12-18T09:07:15;102559.38;;;12.19;69.00
23419;BME280;11882;42.522;27.458;2022-12-18T09:09:42;102550.41;;;12.11;69.01
23419;BME280;11882;42.522;27.458;2022-12-18T09:12:09;102557.41;;;12.21;69.13
23419;BME280;11882;42.522;27.458;2022-12-18T09:14:36;102557.66;;;12.38;67.88
23419;BME280;11882;42.522;27.458;2022-12-18T09:17:03;102557.94;;;12.35;69.28
23419;BME280;11882;42.522;27.458;2022-12-18T09:19:30;102565.81;;;12.36;69.43
23419;BME280;11882;42.522;27.458;2022-12-18T09:21:57;102565.84;;;12.17;70.22
23419;BME280;11882;42.522;27.458;2022-12-18T09:24:25;102566.44;;;12.01;70.87
23419;BME280;11882;42.522;27.458;2022-12-18T09:26:52;102570.91;;;12.01;71.06
23419;BME280;11882;42.522;27.458;2022-12-18T09:29:19;102561.78;;;12.13;71.21
23419;BME280;11882;42.522;27.458;2022-12-18T09:31:47;102551.50;;;12.27;69.95
23419;BME280;11882;42.522;27.458;2022-12-18T09:34:14;102571.03;;;12.18;70.31
23419;BME280;11882;42.522;27.458;2022-12-18T09:36:41;102574.28;;;12.12;70.81
23419;BME280;11882;42.522;27.458;2022-12-18T09:39:08;102569.03;;;12.49;71.73
23419;BME280;11882;42.522;27.458;2022-12-18T09:41:43;102574.78;;;12.54;70.27
23419;BME280;11882;42.522;27.458;2022-12-18T09:44:19;102569.19;;;12.38;69.16
23419;BME280;11882;42.522;27.458;2022-12-18T09:46:47;102573.00;;;12.26;69.07
23419;BME280;11882;42.522;27.458;2022-12-18T09:49:18;102571.34;;;12.15;69.62
23419;BME280;11882;42.522;27.458;2022-12-18T09:51:47;102574.00;;;12.25;69.37
23419;BME280;11882;42.522;27.458;2022-12-18T09:54:16;102564.28;;;12.24;69.82
23419;BME280;11882;42.522;27.458;2022-12-18T09:56:46;102567.94;;;12.33;69.91
23419;BME280;11882;42.522;27.458;2022-12-18T09:59:17;102571.84;;;12.38;68.90
23419;BME280;11882;42.522;27.458;2022-12-18T10:01:44;102575.66;;;12.26;69.05
23419;BME280;11882;42.522;27.458;2022-12-18T10:04:11;102573.56;;;12.20;68.29
23419;BME280;11882;42.522;27.458;2022-12-18T10:06:39;102580.75;;;12.19;68.40
23419;BME280;11882;42.522;27.458;2022-12-18T10:09:11;102579.78;;;12.01;68.70
23419;BME280;11882;42.522;27.458;2022-12-18T10:11:43;102581.03;;;12.07;68.89
23419;BME280;11882;42.522;27.458;2022-12-18T10:14:17;102587.63;;;12.22;67.57
23419;BME280;11882;42.522;27.458;2022-12-18T10:16:49;102586.09;;;11.90;68.06
23419;BME280;11882;42.522;27.458;2022-12-18T10:19:32;102571.63;;;12.12;67.86
23419;BME280;11882;42.522;27.458;2022-12-18T10:22:02;102581.03;;;11.97;68.27
23419;BME280;11882;42.522;27.458;2022-12-18T10:24:37;102578.66;;;12.04;68.07
23419;BME280;11882;42.522;27.458;2022-12-18T10:27:09;102578.78;;;11.92;67.63
23419;BME280;11882;42.522;27.458;2022-12-18T10:29:40;102585.53;;;11.87;68.58
23419;BME280;11882;42.522;27.458;2022-12-18T10:32:07;102588.34;;;11.95;68.36
23419;BME280;11882;42.522;27.458;2022-12-18T10:34:33;102586.88;;;11.72;68.65
23419;BME280;11882;42.522;27.458;2022-12-18T10:37:00;102585.94;;;11.92;67.98
23419;BME280;11882;42.522;27.458;2022-12-18T10:39:28;102584.41;;;11.89;67.79
23419;BME280;11882;42.522;27.458;2022-12-18T10:41:59;102581.47;;;11.83;68.80
23419;BME280;11882;42.522;27.458;2022-12-18T10:44:35;102583.25;;;11.73;68.54
23419;BME280;11882;42.522;27.458;2022-12-18T10:47:04;102586.38;;;11.78;68.05
23419;BME280;11882;42.522;27.458;2022-12-18T10:49:33;102589.41;;;11.54;67.99
23419;BME280;11882;42.522;27.458;2022-12-18T10:52:06;102600.91;;;11.64;68.42
23419;BME280;11882;42.522;27.458;2022-12-18T10:54:33;102603.72;;;11.53;68.37
23419;BME280;11882;42.522;27.458;2022-12-18T10:57:13;102602.88;;;11.52;68.91
23419;BME280;11882;42.522;27.458;2022-12-18T10:59:49;102600.34;;;11.51;69.12
23419;BME280;11882;42.522;27.458;2022-12-18T11:02:24;102606.25;;;11.54;69.46
23419;BME280;11882;42.522;27.458;2022-12-18T11:04:52;102603.66;;;11.34;70.34
23419;BME280;11882;42.522;27.458;2022-12-18T11:07:19;102601.44;;;11.39;70.33
23419;BME280;11882;42.522;27.458;2022-12-18T11:09:59;102602.56;;;11.46;70.12
23419;BME280;11882;42.522;27.458;2022-12-18T11:12:28;102607.63;;;11.49;69.39
23419;BME280;11882;42.522;27.458;2022-12-18T11:14:55;102624.97;;;11.34;70.53
23419;BME280;11882;42.522;27.458;2022-12-18T11:17:29;102625.56;;;11.37;70.52
23419;BME280;11882;42.522;27.458;2022-12-18T11:19:58;102616.09;;;11.14;70.55
23419;BME280;11882;42.522;27.458;2022-12-18T11:22:27;102620.19;;;11.27;70.38
23419;BME280;11882;42.522;27.458;2022-12-18T11:24:57;102614.97;;;11.16;70.03
23419;BME280;11882;42.522;27.458;2022-12-18T11:27:26;102617.50;;;11.18;69.75
23419;BME280;11882;42.522;27.458;2022-12-18T11:29:53;102618.78;;;11.23;69.89
23419;BME280;11882;42.522;27.458;2022-12-18T11:32:37;102621.63;;;11.01;69.85
23419;BME280;11882;42.522;27.458;2022-12-18T11:35:14;102616.03;;;11.04;70.17
23419;BME280;11882;42.522;27.458;2022-12-18T11:37:48;102619.16;;;11.09;69.46
23419;BME280;11882;42.522;27.458;2022-12-18T11:40:19;102633.34;;;10.89;70.23
23419;BME280;11882;42.522;27.458;2022-12-18T11:42:51;102635.94;;;11.00;70.05
23419;BME280;11882;42.522;27.458;2022-12-18T11:45:29;102637.50;;;11.03;69.55
23419;BME280;11882;42.522;27.458;2022-12-18T11:48:01;102639.03;;;11.05;69.18
23419;BME280;11882;42.522;27.458;2022-12-18T11:50:34;102630.78;;;11.08;69.53
23419;BME280;11882;42.522;27.458;2022-12-18T11:53:10;102646.22;;;11.14;69.19
23419;BME280;11882;42.522;27.458;2022-12-18T11:55:41;102652.00;;;11.19;68.75
23419;BME280;11882;42.522;27.458;2022-12-18T11:58:18;102653.66;;;11.11;67.84
23419;BME280;11882;42.522;27.458;2022-12-18T12:00:57;102656.53;;;11.28;67.96
23419;BME280;11882;42.522;27.458;2022-12-18T12:03:51;102659.97;;;11.10;69.05
23419;BME280;11882;42.522;27.458;2022-12-18T12:06:24;102669.53;;;10.91;70.09
23419;BME280;11882;42.522;27.458;2022-12-18T12:09:04;102670.13;;;10.95;70.06
23419;BME280;11882;42.522;27.458;2022-12-18T12:11:45;102675.09;;;11.09;70.53
23419;BME280;11882;42.522;27.458;2022-12-18T12:14:29;102684.84;;;10.99;70.50
23419;BME280;11882;42.522;27.458;2022-12-18T12:17:07;102675.63;;;11.03;70.11
23419;BME280;11882;42.522;27.458;2022-12-18T12:19:44;102685.63;;;11.11;69.74
23419;BME280;11882;42.522;27.458;2022-12-18T12:22:22;102684.06;;;11.08;70.77
23419;BME280;11882;42.522;27.458;2022-12-18T12:25:07;102688.56;;;11.08;70.89
23419;BME280;11882;42.522;27.458;2022-12-18T12:27:44;102686.03;;;11.06;70.68
23419;BME280;11882;42.522;27.458;2022-12-18T12:30:19;102679.53;;;10.99;71.31
23419;BME280;11882;42.522;27.458;2022-12-18T12:33:06;102693.84;;;10.77;72.13
23419;BME280;11882;42.522;27.458;2022-12-18T12:35:46;102697.88;;;10.92;71.57
23419;BME280;11882;42.522;27.458;2022-12-18T12:38:19;102692.66;;;10.91;71.06
23419;BME280;11882;42.522;27.458;2022-12-18T12:40:51;102705.97;;;10.91;70.52
23419;BME280;11882;42.522;27.458;2022-12-18T12:43:28;102700.97;;;10.77;71.29
23419;BME280;11882;42.522;27.458;2022-12-18T12:45:58;102714.03;;;10.80;71.34
23419;BME280;11882;42.522;27.458;2022-12-18T12:48:41;102710.78;;;10.76;70.69
23419;BME280;11882;42.522;27.458;2022-12-18T12:51:17;102721.25;;;10.89;70.14
23419;BME280;11882;42.522;27.458;2022-12-18T12:53:45;102727.34;;;10.80;70.47
23419;BME280;11882;42.522;27.458;2022-12-18T12:56:14;102735.03;;;10.73;70.29